sensor_id;sensor_type;location;lat;lon;timestamp;P1;durP1;ratioP1;P2;durP2;ratioP2
40072;SDS011;25774;52.256;9.356;2022-12-11T00:01:58;31.97;;;13.00;;
40072;SDS011;25774;52.256;9.356;2022-12-11T00:04:23;26.77;;;12.57;;
40072;SDS011;25774;52.256;9.356;2022-12-11T00:06:49;26.63;;;12.97;;
40072;SDS011;25774;52.256;9.356;2022-12-11T00:09:17;29.27;;;13.57;;
40072;SDS011;25774;52.256;9.356;2022-12-11T00:11:43;26.83;;;13.40;;
40072;SDS011;25774;52.256;9.356;2022-12-11T00:14:09;28.35;;;13.13;;
40072;SDS011;25774;52.256;9.356;2022-12-11T00:16:35;28.00;;;12.33;;
40072;SDS011;25774;52.256;9.356;2022-12-11T00:19:01;29.58;;;13.05;;
40072;SDS011;25774;52.256;9.356;2022-12-11T00:21:26;28.93;;;12.53;;
40072;SDS011;25774;52.256;9.356;2022-12-11T00:23:53;30.83;;;13.47;;
40072;SDS011;25774;52.256;9.356;2022-12-11T00:28:45;30.23;;;12.48;;
40072;SDS011;25774;52.256;9.356;2022-12-11T00:31:16;25.42;;;11.80;;
40072;SDS011;25774;52.256;9.356;2022-12-11T00:33:43;26.30;;;12.55;;
40072;SDS011;25774;52.256;9.356;2022-12-11T00:36:10;22.27;;;11.20;;
40072;SDS011;25774;52.256;9.356;2022-12-11T00:38:41;24.23;;;11.32;;
40072;SDS011;25774;52.256;9.356;2022-12-11T00:41:08;29.15;;;13.35;;
40072;SDS011;25774;52.256;9.356;2022-12-11T00:45:58;26.48;;;12.30;;
40072;SDS011;25774;52.256;9.356;2022-12-11T00:48:24;26.47;;;12.10;;
40072;SDS011;25774;52.256;9.356;2022-12-11T00:50:49;29.60;;;12.13;;
40072;SDS011;25774;52.256;9.356;2022-12-11T00:53:15;29.23;;;12.37;;
40072;SDS011;25774;52.256;9.356;2022-12-11T00:55:41;31.03;;;13.30;;
40072;SDS011;25774;52.256;9.356;2022-12-11T00:58:08;27.25;;;11.45;;
40072;SDS011;25774;52.256;9.356;2022-12-11T01:00:35;24.92;;;11.95;;
40072;SDS011;25774;52.256;9.356;2022-12-11T01:03:01;27.05;;;11.73;;
40072;SDS011;25774;52.256;9.356;2022-12-11T01:05:27;29.38;;;13.05;;
40072;SDS011;25774;52.256;9.356;2022-12-11T01:07:52;28.33;;;12.53;;
40072;SDS011;25774;52.256;9.356;2022-12-11T01:10:18;24.67;;;12.53;;
40072;SDS011;25774;52.256;9.356;2022-12-11T01:12:53;31.50;;;12.73;;
40072;SDS011;25774;52.256;9.356;2022-12-11T01:15:40;27.88;;;12.70;;
40072;SDS011;25774;52.256;9.356;2022-12-11T01:18:08;25.02;;;11.63;;
40072;SDS011;25774;52.256;9.356;2022-12-11T01:20:35;24.95;;;11.85;;
40072;SDS011;25774;52.256;9.356;2022-12-11T01:23:02;28.60;;;12.30;;
40072;SDS011;25774;52.256;9.356;2022-12-11T01:25:28;27.33;;;12.73;;
40072;SDS011;25774;52.256;9.356;2022-12-11T01:27:54;26.70;;;12.43;;
40072;SDS011;25774;52.256;9.356;2022-12-11T01:32:47;26.15;;;12.45;;
40072;SDS011;25774;52.256;9.356;2022-12-11T01:35:13;28.52;;;12.45;;
40072;SDS011;25774;52.256;9.356;2022-12-11T01:37:39;29.48;;;12.52;;
40072;SDS011;25774;52.256;9.356;2022-12-11T01:40:05;27.07;;;12.17;;
40072;SDS011;25774;52.256;9.356;2022-12-11T01:42:32;33.13;;;13.23;;
40072;SDS011;25774;52.256;9.356;2022-12-11T01:45:41;33.83;;;13.32;;
40072;SDS011;25774;52.256;9.356;2022-12-11T01:47:51;28.52;;;12.32;;
40072;SDS011;25774;52.256;9.356;2022-12-11T01:50:22;30.55;;;13.65;;
40072;SDS011;25774;52.256;9.356;2022-12-11T01:52:48;30.65;;;12.52;;
40072;SDS011;25774;52.256;9.356;2022-12-11T01:55:14;29.63;;;12.98;;
40072;SDS011;25774;52.256;9.356;2022-12-11T01:57:42;34.78;;;13.68;;
40072;SDS011;25774;52.256;9.356;2022-12-11T02:00:11;26.85;;;12.65;;
40072;SDS011;25774;52.256;9.356;2022-12-11T02:02:37;27.95;;;13.02;;
40072;SDS011;25774;52.256;9.356;2022-12-11T02:05:03;30.70;;;13.83;;
40072;SDS011;25774;52.256;9.356;2022-12-11T02:07:31;31.92;;;13.90;;
40072;SDS011;25774;52.256;9.356;2022-12-11T02:10:03;32.83;;;13.13;;
40072;SDS011;25774;52.256;9.356;2022-12-11T02:12:40;29.55;;;13.15;;
40072;SDS011;25774;52.256;9.356;2022-12-11T02:31:04;29.90;;;12.63;;
40072;SDS011;25774;52.256;9.356;2022-12-11T02:33:39;32.83;;;13.90;;
40072;SDS011;25774;52.256;9.356;2022-12-11T02:36:09;25.55;;;12.40;;
40072;SDS011;25774;52.256;9.356;2022-12-11T02:38:38;30.95;;;13.40;;
40072;SDS011;25774;52.256;9.356;2022-12-11T02:41:08;30.17;;;13.15;;
40072;SDS011;25774;52.256;9.356;2022-12-11T02:43:35;28.27;;;12.88;;
40072;SDS011;25774;52.256;9.356;2022-12-11T02:46:02;27.77;;;12.40;;
40072;SDS011;25774;52.256;9.356;2022-12-11T02:48:32;29.60;;;12.35;;
40072;SDS011;25774;52.256;9.356;2022-12-11T02:50:58;31.33;;;13.02;;
40072;SDS011;25774;52.256;9.356;2022-12-11T02:53:26;33.20;;;13.32;;
40072;SDS011;25774;52.256;9.356;2022-12-11T02:56:03;28.85;;;12.73;;
40072;SDS011;25774;52.256;9.356;2022-12-11T02:58:37;29.70;;;13.02;;
40072;SDS011;25774;52.256;9.356;2022-12-11T03:01:10;29.52;;;12.32;;
40072;SDS011;25774;52.256;9.356;2022-12-11T03:03:36;24.23;;;12.00;;
40072;SDS011;25774;52.256;9.356;2022-12-11T03:08:28;37.05;;;12.95;;
40072;SDS011;25774;52.256;9.356;2022-12-11T03:10:53;33.33;;;12.05;;
40072;SDS011;25774;52.256;9.356;2022-12-11T03:13:19;27.43;;;12.37;;
40072;SDS011;25774;52.256;9.356;2022-12-11T03:16:33;27.75;;;12.38;;
40072;SDS011;25774;52.256;9.356;2022-12-11T03:21:32;26.05;;;10.88;;
40072;SDS011;25774;52.256;9.356;2022-12-11T03:25:03;28.63;;;12.10;;
40072;SDS011;25774;52.256;9.356;2022-12-11T03:27:26;29.30;;;12.63;;
40072;SDS011;25774;52.256;9.356;2022-12-11T03:29:58;26.98;;;11.88;;
40072;SDS011;25774;52.256;9.356;2022-12-11T03:32:29;30.52;;;12.65;;
40072;SDS011;25774;52.256;9.356;2022-12-11T03:35:02;27.17;;;12.43;;
40072;SDS011;25774;52.256;9.356;2022-12-11T03:37:52;27.88;;;11.73;;
40072;SDS011;25774;52.256;9.356;2022-12-11T03:40:26;29.08;;;11.38;;
40072;SDS011;25774;52.256;9.356;2022-12-11T03:42:54;35.97;;;12.38;;
40072;SDS011;25774;52.256;9.356;2022-12-11T03:45:21;33.60;;;12.25;;
40072;SDS011;25774;52.256;9.356;2022-12-11T03:47:49;37.17;;;15.00;;
40072;SDS011;25774;52.256;9.356;2022-12-11T03:50:17;33.83;;;13.38;;
40072;SDS011;25774;52.256;9.356;2022-12-11T03:52:47;36.17;;;13.88;;
40072;SDS011;25774;52.256;9.356;2022-12-11T03:55:15;35.30;;;14.02;;
40072;SDS011;25774;52.256;9.356;2022-12-11T03:57:41;35.47;;;14.60;;
40072;SDS011;25774;52.256;9.356;2022-12-11T04:00:08;34.05;;;15.02;;
40072;SDS011;25774;52.256;9.356;2022-12-11T04:02:37;31.75;;;13.43;;
40072;SDS011;25774;52.256;9.356;2022-12-11T04:05:02;32.05;;;13.57;;
40072;SDS011;25774;52.256;9.356;2022-12-11T04:07:28;31.77;;;13.65;;
40072;SDS011;25774;52.256;9.356;2022-12-11T04:09:56;38.83;;;14.38;;
40072;SDS011;25774;52.256;9.356;2022-12-11T04:14:47;30.33;;;13.02;;
40072;SDS011;25774;52.256;9.356;2022-12-11T04:17:31;33.50;;;13.30;;
40072;SDS011;25774;52.256;9.356;2022-12-11T04:20:17;35.38;;;13.85;;
40072;SDS011;25774;52.256;9.356;2022-12-11T04:23:03;33.85;;;13.52;;
40072;SDS011;25774;52.256;9.356;2022-12-11T04:25:47;33.72;;;14.15;;
40072;SDS011;25774;52.256;9.356;2022-12-11T04:28:13;37.33;;;15.35;;
40072;SDS011;25774;52.256;9.356;2022-12-11T04:30:38;36.63;;;14.73;;
40072;SDS011;25774;52.256;9.356;2022-12-11T04:33:05;29.47;;;12.67;;
40072;SDS011;25774;52.256;9.356;2022-12-11T04:35:30;34.38;;;14.50;;
40072;SDS011;25774;52.256;9.356;2022-12-11T04:37:56;35.40;;;15.53;;
40072;SDS011;25774;52.256;9.356;2022-12-11T04:40:21;34.03;;;15.03;;
40072;SDS011;25774;52.256;9.356;2022-12-11T04:42:47;34.30;;;14.73;;
40072;SDS011;25774;52.256;9.356;2022-12-11T04:45:12;38.43;;;15.03;;
40072;SDS011;25774;52.256;9.356;2022-12-11T04:47:40;42.05;;;15.60;;
40072;SDS011;25774;52.256;9.356;2022-12-11T04:50:07;40.25;;;15.30;;
40072;SDS011;25774;52.256;9.356;2022-12-11T04:52:34;35.63;;;14.60;;
40072;SDS011;25774;52.256;9.356;2022-12-11T04:55:01;38.60;;;16.37;;
40072;SDS011;25774;52.256;9.356;2022-12-11T04:57:28;43.33;;;17.38;;
40072;SDS011;25774;52.256;9.356;2022-12-11T04:59:55;40.00;;;15.70;;
40072;SDS011;25774;52.256;9.356;2022-12-11T05:02:20;49.50;;;16.55;;
40072;SDS011;25774;52.256;9.356;2022-12-11T05:04:45;40.40;;;15.23;;
40072;SDS011;25774;52.256;9.356;2022-12-11T05:07:11;43.07;;;16.70;;
40072;SDS011;25774;52.256;9.356;2022-12-11T05:09:36;47.00;;;17.67;;
40072;SDS011;25774;52.256;9.356;2022-12-11T05:12:02;46.03;;;18.10;;
40072;SDS011;25774;52.256;9.356;2022-12-11T05:14:28;44.22;;;18.17;;
40072;SDS011;25774;52.256;9.356;2022-12-11T05:16:56;42.70;;;17.27;;
40072;SDS011;25774;52.256;9.356;2022-12-11T05:19:22;45.00;;;16.77;;
40072;SDS011;25774;52.256;9.356;2022-12-11T05:21:48;46.03;;;17.73;;
40072;SDS011;25774;52.256;9.356;2022-12-11T05:24:14;41.63;;;15.50;;
40072;SDS011;25774;52.256;9.356;2022-12-11T05:29:05;39.15;;;17.10;;
40072;SDS011;25774;52.256;9.356;2022-12-11T05:31:30;48.87;;;17.90;;
40072;SDS011;25774;52.256;9.356;2022-12-11T05:33:55;39.97;;;15.80;;
40072;SDS011;25774;52.256;9.356;2022-12-11T05:36:22;41.50;;;17.03;;
40072;SDS011;25774;52.256;9.356;2022-12-11T05:38:50;47.30;;;17.00;;
40072;SDS011;25774;52.256;9.356;2022-12-11T05:43:43;44.88;;;17.58;;
40072;SDS011;25774;52.256;9.356;2022-12-11T05:46:10;47.55;;;18.23;;
40072;SDS011;25774;52.256;9.356;2022-12-11T05:48:38;44.10;;;17.83;;
40072;SDS011;25774;52.256;9.356;2022-12-11T05:51:04;42.85;;;17.08;;
40072;SDS011;25774;52.256;9.356;2022-12-11T05:53:32;48.90;;;19.30;;
40072;SDS011;25774;52.256;9.356;2022-12-11T05:56:01;50.70;;;18.98;;
40072;SDS011;25774;52.256;9.356;2022-12-11T05:58:29;53.03;;;18.65;;
40072;SDS011;25774;52.256;9.356;2022-12-11T06:00:54;44.97;;;18.50;;
40072;SDS011;25774;52.256;9.356;2022-12-11T06:03:20;46.67;;;17.23;;
40072;SDS011;25774;52.256;9.356;2022-12-11T06:05:46;43.83;;;16.70;;
40072;SDS011;25774;52.256;9.356;2022-12-11T06:10:37;42.90;;;16.13;;
40072;SDS011;25774;52.256;9.356;2022-12-11T06:13:02;43.07;;;17.90;;
40072;SDS011;25774;52.256;9.356;2022-12-11T06:15:28;45.08;;;18.45;;
40072;SDS011;25774;52.256;9.356;2022-12-11T06:17:53;49.80;;;18.30;;
40072;SDS011;25774;52.256;9.356;2022-12-11T06:20:19;46.40;;;18.00;;
40072;SDS011;25774;52.256;9.356;2022-12-11T06:22:44;44.60;;;16.67;;
40072;SDS011;25774;52.256;9.356;2022-12-11T06:25:09;45.03;;;17.07;;
40072;SDS011;25774;52.256;9.356;2022-12-11T06:27:35;52.03;;;17.67;;
40072;SDS011;25774;52.256;9.356;2022-12-11T06:30:00;48.83;;;17.50;;
40072;SDS011;25774;52.256;9.356;2022-12-11T06:32:26;44.03;;;16.30;;
40072;SDS011;25774;52.256;9.356;2022-12-11T06:34:51;46.47;;;17.97;;
40072;SDS011;25774;52.256;9.356;2022-12-11T06:37:16;49.73;;;17.93;;
40072;SDS011;25774;52.256;9.356;2022-12-11T06:39:42;45.77;;;18.40;;
40072;SDS011;25774;52.256;9.356;2022-12-11T06:42:07;47.73;;;17.93;;
40072;SDS011;25774;52.256;9.356;2022-12-11T06:44:33;45.73;;;18.30;;
40072;SDS011;25774;52.256;9.356;2022-12-11T06:46:58;48.77;;;18.27;;
40072;SDS011;25774;52.256;9.356;2022-12-11T06:49:23;46.90;;;18.97;;
40072;SDS011;25774;52.256;9.356;2022-12-11T06:51:48;55.70;;;19.67;;
40072;SDS011;25774;52.256;9.356;2022-12-11T06:54:14;42.87;;;18.30;;
40072;SDS011;25774;52.256;9.356;2022-12-11T06:56:39;48.80;;;18.53;;
40072;SDS011;25774;52.256;9.356;2022-12-11T06:59:06;49.27;;;20.30;;
40072;SDS011;25774;52.256;9.356;2022-12-11T07:01:35;44.15;;;18.10;;
40072;SDS011;25774;52.256;9.356;2022-12-11T07:04:01;43.60;;;18.53;;
40072;SDS011;25774;52.256;9.356;2022-12-11T07:06:27;45.77;;;18.37;;
40072;SDS011;25774;52.256;9.356;2022-12-11T07:08:53;48.80;;;18.17;;
40072;SDS011;25774;52.256;9.356;2022-12-11T07:11:19;48.22;;;19.13;;
40072;SDS011;25774;52.256;9.356;2022-12-11T07:13:46;45.22;;;18.55;;
40072;SDS011;25774;52.256;9.356;2022-12-11T07:16:14;44.35;;;18.42;;
40072;SDS011;25774;52.256;9.356;2022-12-11T07:18:42;44.20;;;19.23;;
40072;SDS011;25774;52.256;9.356;2022-12-11T07:21:11;51.67;;;19.63;;
40072;SDS011;25774;52.256;9.356;2022-12-11T07:23:38;48.22;;;20.20;;
40072;SDS011;25774;52.256;9.356;2022-12-11T07:26:05;47.35;;;17.85;;
40072;SDS011;25774;52.256;9.356;2022-12-11T07:28:32;47.72;;;18.63;;
40072;SDS011;25774;52.256;9.356;2022-12-11T07:30:58;44.30;;;17.98;;
40072;SDS011;25774;52.256;9.356;2022-12-11T07:33:23;40.17;;;17.43;;
40072;SDS011;25774;52.256;9.356;2022-12-11T07:35:49;45.50;;;18.67;;
40072;SDS011;25774;52.256;9.356;2022-12-11T07:38:16;42.93;;;18.20;;
40072;SDS011;25774;52.256;9.356;2022-12-11T07:40:42;44.28;;;17.98;;
40072;SDS011;25774;52.256;9.356;2022-12-11T07:43:07;49.53;;;19.67;;
40072;SDS011;25774;52.256;9.356;2022-12-11T07:45:32;43.70;;;17.00;;
40072;SDS011;25774;52.256;9.356;2022-12-11T07:47:58;45.00;;;17.80;;
40072;SDS011;25774;52.256;9.356;2022-12-11T07:50:23;45.83;;;18.53;;
40072;SDS011;25774;52.256;9.356;2022-12-11T07:52:48;43.97;;;18.47;;
40072;SDS011;25774;52.256;9.356;2022-12-11T07:55:14;43.20;;;17.40;;
40072;SDS011;25774;52.256;9.356;2022-12-11T07:57:39;43.87;;;18.47;;
40072;SDS011;25774;52.256;9.356;2022-12-11T08:00:05;47.17;;;17.87;;
40072;SDS011;25774;52.256;9.356;2022-12-11T08:02:31;49.00;;;18.92;;
40072;SDS011;25774;52.256;9.356;2022-12-11T08:04:56;49.10;;;19.57;;
40072;SDS011;25774;52.256;9.356;2022-12-11T08:07:21;48.53;;;19.03;;
40072;SDS011;25774;52.256;9.356;2022-12-11T08:09:47;47.70;;;20.43;;
40072;SDS011;25774;52.256;9.356;2022-12-11T08:12:12;51.93;;;18.93;;
40072;SDS011;25774;52.256;9.356;2022-12-11T08:14:37;45.47;;;18.50;;
40072;SDS011;25774;52.256;9.356;2022-12-11T08:17:03;52.10;;;20.10;;
40072;SDS011;25774;52.256;9.356;2022-12-11T08:19:28;46.90;;;18.40;;
40072;SDS011;25774;52.256;9.356;2022-12-11T08:21:54;57.87;;;20.37;;
40072;SDS011;25774;52.256;9.356;2022-12-11T08:24:20;46.57;;;21.07;;
40072;SDS011;25774;52.256;9.356;2022-12-11T08:29:12;50.58;;;19.77;;
40072;SDS011;25774;52.256;9.356;2022-12-11T08:31:38;48.08;;;20.38;;
40072;SDS011;25774;52.256;9.356;2022-12-11T08:34:04;47.13;;;19.15;;
40072;SDS011;25774;52.256;9.356;2022-12-11T08:36:30;48.33;;;19.63;;
40072;SDS011;25774;52.256;9.356;2022-12-11T08:38:58;51.22;;;20.15;;
40072;SDS011;25774;52.256;9.356;2022-12-11T08:41:25;46.50;;;19.23;;
40072;SDS011;25774;52.256;9.356;2022-12-11T08:43:52;50.28;;;20.48;;
40072;SDS011;25774;52.256;9.356;2022-12-11T08:46:22;48.60;;;20.15;;
40072;SDS011;25774;52.256;9.356;2022-12-11T08:48:49;53.45;;;20.90;;
40072;SDS011;25774;52.256;9.356;2022-12-11T08:51:15;49.00;;;19.55;;
40072;SDS011;25774;52.256;9.356;2022-12-11T08:53:42;54.55;;;20.58;;
40072;SDS011;25774;52.256;9.356;2022-12-11T08:56:12;49.65;;;20.08;;
40072;SDS011;25774;52.256;9.356;2022-12-11T08:58:38;47.85;;;20.25;;
40072;SDS011;25774;52.256;9.356;2022-12-11T09:01:05;48.40;;;20.17;;
40072;SDS011;25774;52.256;9.356;2022-12-11T09:03:32;52.42;;;20.15;;
40072;SDS011;25774;52.256;9.356;2022-12-11T09:06:02;52.63;;;20.50;;
40072;SDS011;25774;52.256;9.356;2022-12-11T09:08:31;45.17;;;19.55;;
40072;SDS011;25774;52.256;9.356;2022-12-11T09:11:01;49.22;;;19.92;;
40072;SDS011;25774;52.256;9.356;2022-12-11T09:13:30;48.78;;;19.35;;
40072;SDS011;25774;52.256;9.356;2022-12-11T09:15:55;51.40;;;20.03;;
40072;SDS011;25774;52.256;9.356;2022-12-11T09:18:21;47.50;;;20.17;;
40072;SDS011;25774;52.256;9.356;2022-12-11T09:20:46;53.03;;;21.40;;
40072;SDS011;25774;52.256;9.356;2022-12-11T09:23:12;55.23;;;21.40;;
40072;SDS011;25774;52.256;9.356;2022-12-11T09:25:40;56.35;;;22.05;;
40072;SDS011;25774;52.256;9.356;2022-12-11T09:28:06;51.33;;;22.15;;
40072;SDS011;25774;52.256;9.356;2022-12-11T09:30:33;50.53;;;20.33;;
40072;SDS011;25774;52.256;9.356;2022-12-11T09:32:59;50.00;;;20.13;;
40072;SDS011;25774;52.256;9.356;2022-12-11T09:35:24;52.47;;;21.20;;
40072;SDS011;25774;52.256;9.356;2022-12-11T09:37:49;50.80;;;20.80;;
40072;SDS011;25774;52.256;9.356;2022-12-11T09:40:16;51.40;;;21.90;;
40072;SDS011;25774;52.256;9.356;2022-12-11T09:45:12;49.35;;;20.40;;
40072;SDS011;25774;52.256;9.356;2022-12-11T09:47:40;47.17;;;20.55;;
40072;SDS011;25774;52.256;9.356;2022-12-11T09:55:02;47.38;;;20.67;;
40072;SDS011;25774;52.256;9.356;2022-12-11T10:00:27;55.03;;;22.08;;
40072;SDS011;25774;52.256;9.356;2022-12-11T10:06:19;52.05;;;22.20;;
40072;SDS011;25774;52.256;9.356;2022-12-11T10:14:38;51.25;;;20.73;;
40072;SDS011;25774;52.256;9.356;2022-12-11T10:20:24;46.17;;;20.05;;
40072;SDS011;25774;52.256;9.356;2022-12-11T10:22:52;54.58;;;22.10;;
40072;SDS011;25774;52.256;9.356;2022-12-11T10:27:52;52.30;;;21.08;;
40072;SDS011;25774;52.256;9.356;2022-12-11T10:30:22;50.28;;;20.55;;
40072;SDS011;25774;52.256;9.356;2022-12-11T10:32:53;49.35;;;20.80;;
40072;SDS011;25774;52.256;9.356;2022-12-11T10:35:35;54.08;;;21.65;;
40072;SDS011;25774;52.256;9.356;2022-12-11T10:38:11;49.20;;;20.58;;
40072;SDS011;25774;52.256;9.356;2022-12-11T10:40:45;53.15;;;22.35;;
40072;SDS011;25774;52.256;9.356;2022-12-11T10:43:18;50.50;;;21.92;;
40072;SDS011;25774;52.256;9.356;2022-12-11T10:48:17;48.20;;;20.67;;
40072;SDS011;25774;52.256;9.356;2022-12-11T10:53:19;45.78;;;18.60;;
40072;SDS011;25774;52.256;9.356;2022-12-11T10:55:46;48.28;;;21.08;;
40072;SDS011;25774;52.256;9.356;2022-12-11T10:58:20;48.83;;;20.70;;
40072;SDS011;25774;52.256;9.356;2022-12-11T11:01:12;48.85;;;20.13;;
40072;SDS011;25774;52.256;9.356;2022-12-11T11:03:42;48.40;;;20.60;;
40072;SDS011;25774;52.256;9.356;2022-12-11T11:06:21;51.38;;;19.55;;
40072;SDS011;25774;52.256;9.356;2022-12-11T11:08:49;42.22;;;19.85;;
40072;SDS011;25774;52.256;9.356;2022-12-11T11:13:47;44.88;;;20.23;;
40072;SDS011;25774;52.256;9.356;2022-12-11T11:16:13;47.28;;;20.05;;
40072;SDS011;25774;52.256;9.356;2022-12-11T11:18:53;48.47;;;21.88;;
40072;SDS011;25774;52.256;9.356;2022-12-11T11:21:21;44.85;;;20.17;;
40072;SDS011;25774;52.256;9.356;2022-12-11T11:23:48;47.38;;;19.90;;
40072;SDS011;25774;52.256;9.356;2022-12-11T11:26:16;47.80;;;20.92;;
40072;SDS011;25774;52.256;9.356;2022-12-11T11:28:46;51.92;;;19.65;;
40072;SDS011;25774;52.256;9.356;2022-12-11T11:31:32;48.95;;;20.80;;
40072;SDS011;25774;52.256;9.356;2022-12-11T11:34:06;47.28;;;19.80;;
40072;SDS011;25774;52.256;9.356;2022-12-11T11:36:35;45.35;;;19.17;;
40072;SDS011;25774;52.256;9.356;2022-12-11T11:39:03;47.67;;;20.02;;
40072;SDS011;25774;52.256;9.356;2022-12-11T11:44:23;44.58;;;19.40;;
40072;SDS011;25774;52.256;9.356;2022-12-11T11:47:29;46.47;;;19.10;;
40072;SDS011;25774;52.256;9.356;2022-12-11T11:53:01;46.70;;;20.00;;
40072;SDS011;25774;52.256;9.356;2022-12-11T11:58:14;47.03;;;20.25;;
40072;SDS011;25774;52.256;9.356;2022-12-11T12:00:43;51.85;;;20.77;;
40072;SDS011;25774;52.256;9.356;2022-12-11T12:03:12;51.22;;;21.90;;
40072;SDS011;25774;52.256;9.356;2022-12-11T12:05:44;45.90;;;20.38;;
40072;SDS011;25774;52.256;9.356;2022-12-11T12:14:00;47.00;;;19.88;;
40072;SDS011;25774;52.256;9.356;2022-12-11T12:16:31;43.67;;;19.20;;
40072;SDS011;25774;52.256;9.356;2022-12-11T12:21:48;42.83;;;19.50;;
40072;SDS011;25774;52.256;9.356;2022-12-11T12:29:54;49.88;;;21.45;;
40072;SDS011;25774;52.256;9.356;2022-12-11T12:38:04;43.75;;;20.25;;
40072;SDS011;25774;52.256;9.356;2022-12-11T12:46:17;48.10;;;21.20;;
40072;SDS011;25774;52.256;9.356;2022-12-11T12:48:52;44.25;;;20.45;;
40072;SDS011;25774;52.256;9.356;2022-12-11T12:51:21;48.85;;;20.52;;
40072;SDS011;25774;52.256;9.356;2022-12-11T12:53:51;48.13;;;22.27;;
40072;SDS011;25774;52.256;9.356;2022-12-11T12:56:19;51.33;;;21.88;;
40072;SDS011;25774;52.256;9.356;2022-12-11T12:58:46;48.45;;;19.67;;
40072;SDS011;25774;52.256;9.356;2022-12-11T13:01:14;49.38;;;21.15;;
40072;SDS011;25774;52.256;9.356;2022-12-11T13:09:14;48.22;;;20.70;;
40072;SDS011;25774;52.256;9.356;2022-12-11T13:11:46;52.35;;;21.67;;
40072;SDS011;25774;52.256;9.356;2022-12-11T13:16:49;49.05;;;20.45;;
40072;SDS011;25774;52.256;9.356;2022-12-11T13:21:57;49.15;;;20.65;;
40072;SDS011;25774;52.256;9.356;2022-12-11T13:24:25;47.35;;;20.98;;
40072;SDS011;25774;52.256;9.356;2022-12-11T13:26:53;48.72;;;19.67;;
40072;SDS011;25774;52.256;9.356;2022-12-11T13:32:03;47.60;;;19.40;;
40072;SDS011;25774;52.256;9.356;2022-12-11T13:34:53;48.72;;;19.77;;
40072;SDS011;25774;52.256;9.356;2022-12-11T13:39:52;51.47;;;21.15;;
40072;SDS011;25774;52.256;9.356;2022-12-11T13:42:32;46.58;;;20.33;;
40072;SDS011;25774;52.256;9.356;2022-12-11T13:45:01;50.33;;;21.40;;
40072;SDS011;25774;52.256;9.356;2022-12-11T13:47:28;48.10;;;20.52;;
40072;SDS011;25774;52.256;9.356;2022-12-11T13:50:10;45.22;;;20.15;;
40072;SDS011;25774;52.256;9.356;2022-12-11T13:52:40;51.55;;;20.55;;
40072;SDS011;25774;52.256;9.356;2022-12-11T13:55:26;48.28;;;19.60;;
40072;SDS011;25774;52.256;9.356;2022-12-11T13:57:54;48.45;;;21.20;;
40072;SDS011;25774;52.256;9.356;2022-12-11T14:00:21;51.83;;;20.75;;
40072;SDS011;25774;52.256;9.356;2022-12-11T14:02:48;46.08;;;20.52;;
40072;SDS011;25774;52.256;9.356;2022-12-11T14:05:15;51.03;;;21.25;;
40072;SDS011;25774;52.256;9.356;2022-12-11T14:10:25;47.08;;;20.73;;
40072;SDS011;25774;52.256;9.356;2022-12-11T14:12:53;47.05;;;19.38;;
40072;SDS011;25774;52.256;9.356;2022-12-11T14:15:20;52.00;;;20.58;;
40072;SDS011;25774;52.256;9.356;2022-12-11T14:17:46;51.05;;;20.23;;
40072;SDS011;25774;52.256;9.356;2022-12-11T14:20:20;51.80;;;20.27;;
40072;SDS011;25774;52.256;9.356;2022-12-11T14:22:46;43.47;;;18.60;;
40072;SDS011;25774;52.256;9.356;2022-12-11T14:25:21;45.90;;;20.70;;
40072;SDS011;25774;52.256;9.356;2022-12-11T14:27:51;52.20;;;21.45;;
40072;SDS011;25774;52.256;9.356;2022-12-11T14:30:29;52.38;;;21.08;;
40072;SDS011;25774;52.256;9.356;2022-12-11T14:32:59;47.80;;;20.60;;
40072;SDS011;25774;52.256;9.356;2022-12-11T14:35:37;52.15;;;20.50;;
40072;SDS011;25774;52.256;9.356;2022-12-11T14:38:11;48.95;;;21.55;;
40072;SDS011;25774;52.256;9.356;2022-12-11T14:40:42;36.95;;;15.55;;
40072;SDS011;25774;52.256;9.356;2022-12-11T14:43:13;46.88;;;20.92;;
40072;SDS011;25774;52.256;9.356;2022-12-11T14:45:44;48.40;;;20.02;;
40072;SDS011;25774;52.256;9.356;2022-12-11T14:48:15;50.03;;;20.52;;
40072;SDS011;25774;52.256;9.356;2022-12-11T14:50:47;49.67;;;19.52;;
40072;SDS011;25774;52.256;9.356;2022-12-11T14:53:19;52.47;;;20.52;;
40072;SDS011;25774;52.256;9.356;2022-12-11T14:55:49;49.15;;;19.55;;
40072;SDS011;25774;52.256;9.356;2022-12-11T14:58:21;45.88;;;19.52;;
40072;SDS011;25774;52.256;9.356;2022-12-11T15:03:35;54.50;;;21.05;;
40072;SDS011;25774;52.256;9.356;2022-12-11T15:06:17;49.85;;;20.20;;
40072;SDS011;25774;52.256;9.356;2022-12-11T15:08:56;46.90;;;19.60;;
40072;SDS011;25774;52.256;9.356;2022-12-11T15:11:21;46.05;;;19.65;;
40072;SDS011;25774;52.256;9.356;2022-12-11T15:13:57;49.53;;;20.83;;
40072;SDS011;25774;52.256;9.356;2022-12-11T15:16:25;49.20;;;20.92;;
40072;SDS011;25774;52.256;9.356;2022-12-11T15:18:53;51.83;;;21.42;;
40072;SDS011;25774;52.256;9.356;2022-12-11T15:21:31;44.63;;;19.55;;
40072;SDS011;25774;52.256;9.356;2022-12-11T15:24:00;47.88;;;18.92;;
40072;SDS011;25774;52.256;9.356;2022-12-11T15:26:46;47.28;;;19.52;;
40072;SDS011;25774;52.256;9.356;2022-12-11T15:32:03;45.70;;;19.27;;
40072;SDS011;25774;52.256;9.356;2022-12-11T15:39:52;40.45;;;16.70;;
40072;SDS011;25774;52.256;9.356;2022-12-11T15:42:34;47.03;;;18.63;;
40072;SDS011;25774;52.256;9.356;2022-12-11T15:45:04;41.45;;;16.80;;
40072;SDS011;25774;52.256;9.356;2022-12-11T15:47:31;43.97;;;16.67;;
40072;SDS011;25774;52.256;9.356;2022-12-11T15:50:11;38.37;;;16.07;;
40072;SDS011;25774;52.256;9.356;2022-12-11T15:52:43;28.88;;;12.65;;
40072;SDS011;25774;52.256;9.356;2022-12-11T15:55:08;40.58;;;15.18;;
40072;SDS011;25774;52.256;9.356;2022-12-11T15:57:34;36.90;;;13.80;;
40072;SDS011;25774;52.256;9.356;2022-12-11T16:00:00;35.35;;;14.75;;
40072;SDS011;25774;52.256;9.356;2022-12-11T16:02:26;30.93;;;13.70;;
40072;SDS011;25774;52.256;9.356;2022-12-11T16:04:53;31.88;;;12.95;;
40072;SDS011;25774;52.256;9.356;2022-12-11T16:07:19;33.13;;;13.55;;
40072;SDS011;25774;52.256;9.356;2022-12-11T16:09:46;32.70;;;13.27;;
40072;SDS011;25774;52.256;9.356;2022-12-11T16:12:12;34.88;;;15.15;;
40072;SDS011;25774;52.256;9.356;2022-12-11T16:14:39;37.45;;;14.98;;
40072;SDS011;25774;52.256;9.356;2022-12-11T16:17:06;31.25;;;14.30;;
40072;SDS011;25774;52.256;9.356;2022-12-11T16:19:39;33.05;;;13.25;;
40072;SDS011;25774;52.256;9.356;2022-12-11T16:22:11;30.17;;;14.05;;
40072;SDS011;25774;52.256;9.356;2022-12-11T16:24:38;40.47;;;14.68;;
40072;SDS011;25774;52.256;9.356;2022-12-11T16:27:04;37.60;;;15.40;;
40072;SDS011;25774;52.256;9.356;2022-12-11T16:29:34;36.53;;;15.20;;
40072;SDS011;25774;52.256;9.356;2022-12-11T16:32:01;35.83;;;14.52;;
40072;SDS011;25774;52.256;9.356;2022-12-11T16:34:28;37.63;;;15.48;;
40072;SDS011;25774;52.256;9.356;2022-12-11T16:36:55;33.60;;;13.57;;
40072;SDS011;25774;52.256;9.356;2022-12-11T16:39:22;36.53;;;14.50;;
40072;SDS011;25774;52.256;9.356;2022-12-11T16:41:47;39.72;;;16.77;;
40072;SDS011;25774;52.256;9.356;2022-12-11T16:44:15;34.33;;;14.83;;
40072;SDS011;25774;52.256;9.356;2022-12-11T16:46:43;39.22;;;14.68;;
40072;SDS011;25774;52.256;9.356;2022-12-11T16:49:08;37.27;;;14.67;;